Time;durP1;ratioP1;P1;durP2;ratioP2;P2;SDS_P1;SDS_P2;PMS_P1;PMS_P2;Temp;Humidity;BMP_temperature;BMP_pressure;BME280_temperature;BME280_humidity;BME280_pressure;Samples;Min_cycle;Max_cycle;Signal;HPM_P1;HPM_P2
2023/12/29 00:01:09;;;;;;;10.20;4.70;;;;;;;5.36;100.00;100199.79;4840365;58;1136741;-79
2023/12/29 00:06:16;;;;;;;6.33;3.97;;;;;;;5.37;100.00;100190.14;4884076;56;1138873;-79
2023/12/29 00:11:22;;;;;;;11.40;5.47;;;;;;;5.38;100.00;100183.97;4811995;57;1137028;-79
2023/12/29 00:16:29;;;;;;;10.80;4.60;;;;;;;5.37;100.00;100180.50;4834735;58;1138925;-79
2023/12/29 00:21:36;;;;;;;11.40;4.55;;;;;;;5.35;100.00;100169.25;4937453;56;1138891;-79
2023/12/29 00:26:42;;;;;;;8.60;4.27;;;;;;;5.36;100.00;100163.55;4881149;58;1138634;-79
2023/12/29 00:31:47;;;;;;;14.20;5.03;;;;;;;5.36;100.00;100160.45;5035378;56;1136777;-79
2023/12/29 00:36:53;;;;;;;9.30;3.77;;;;;;;5.34;100.00;100149.72;5114204;56;1138855;-78
2023/12/29 00:42:00;;;;;;;10.17;4.37;;;;;;;5.33;100.00;100146.72;5083896;56;1136781;-79
2023/12/29 00:47:06;;;;;;;7.20;4.37;;;;;;;5.34;100.00;100153.65;5077596;56;1138573;-78
2023/12/29 00:52:11;;;;;;;9.07;4.80;;;;;;;5.32;100.00;100138.01;5098835;56;1136263;-79
2023/12/29 00:57:17;;;;;;;9.30;5.10;;;;;;;5.31;100.00;100137.63;5078396;56;1136634;-78
2023/12/29 01:02:22;;;;;;;12.43;5.70;;;;;;;5.28;100.00;100130.79;5078596;56;1136631;-79
2023/12/29 01:07:28;;;;;;;9.63;4.63;;;;;;;5.29;100.00;100134.26;5078752;56;1138702;-79
2023/12/29 01:12:33;;;;;;;9.00;4.07;;;;;;;5.30;100.00;100128.08;5066680;57;1136802;-79
2023/12/29 01:17:39;;;;;;;7.12;4.30;;;;;;;5.31;100.00;100132.39;5024809;57;1136710;-79
2023/12/29 01:22:45;;;;;;;9.37;4.30;;;;;;;5.31;100.00;100125.83;5024952;56;1136728;-79
2023/12/29 01:27:51;;;;;;;9.03;4.07;;;;;;;5.34;100.00;100120.87;5044889;56;1136642;-79
2023/12/29 01:32:56;;;;;;;9.63;3.33;;;;;;;5.34;100.00;100110.38;5064004;56;1136727;-79
2023/12/29 01:38:04;;;;;;;5.70;3.57;;;;;;;5.34;100.00;100112.53;5024912;56;1136510;-79
2023/12/29 01:43:09;;;;;;;6.20;3.87;;;;;;;5.36;100.00;100103.23;5044442;57;1136779;-79
2023/12/29 01:48:15;;;;;;;6.63;4.30;;;;;;;5.36;100.00;100100.61;5025398;56;1136674;-78
2023/12/29 01:53:22;;;;;;;6.78;3.70;;;;;;;5.34;100.00;100097.27;4962218;57;1136681;-79
2023/12/29 01:58:28;;;;;;;6.10;3.73;;;;;;;5.32;100.00;100092.59;4962724;57;1136751;-79
2023/12/29 02:03:35;;;;;;;6.80;3.83;;;;;;;5.30;100.00;100070.39;4982723;57;1136576;-79
2023/12/29 02:08:42;;;;;;;5.47;3.80;;;;;;;5.28;100.00;100073.11;4963281;58;1136681;-79
2023/12/29 02:13:49;;;;;;;6.70;3.55;;;;;;;5.28;100.00;100066.55;4962908;57;1136613;-79
2023/12/29 02:18:56;;;;;;;7.30;4.07;;;;;;;5.28;100.00;100055.22;4982910;58;1136847;-79
2023/12/29 02:24:02;;;;;;;7.33;3.63;;;;;;;5.29;100.00;100041.17;4961098;58;1136873;-79
2023/12/29 02:29:11;;;;;;;6.47;4.15;;;;;;;5.33;100.00;100035.28;4962629;57;1136521;-79
2023/12/29 02:34:19;;;;;;;6.73;4.00;;;;;;;5.30;100.00;100032.38;4982632;58;1136815;-79
2023/12/29 02:39:25;;;;;;;6.97;3.77;;;;;;;5.30;100.00;100026.66;4963554;58;1136752;-79
2023/12/29 02:44:31;;;;;;;8.83;3.27;;;;;;;5.30;100.00;100017.95;4966086;57;1146355;-78
2023/12/29 02:49:36;;;;;;;5.73;3.47;;;;;;;5.30;100.00;100015.34;4991513;57;1136667;-78
2023/12/29 02:54:43;;;;;;;10.50;5.28;;;;;;;5.32;100.00;100009.53;4988291;57;1136647;-79
2023/12/29 02:59:49;;;;;;;5.55;3.00;;;;;;;5.34;100.00;100008.96;4900681;58;1138964;-78
2023/12/29 03:04:54;;;;;;;8.07;3.90;;;;;;;5.36;100.00;99997.88;5040769;57;1136606;-79
2023/12/29 03:10:00;;;;;;;3.77;3.37;;;;;;;5.38;100.00;100016.14;5024228;57;1134650;-79
2023/12/29 03:15:06;;;;;;;6.17;3.33;;;;;;;5.40;100.00;100001.16;5035244;57;1136941;-78
2023/12/29 03:20:12;;;;;;;5.73;2.93;;;;;;;5.39;100.00;99992.44;5055273;56;1136670;-78
2023/12/29 03:25:18;;;;;;;7.17;3.47;;;;;;;5.40;100.00;99983.64;5035271;56;1134723;-78
2023/12/29 03:30:23;;;;;;;4.17;3.55;;;;;;;5.42;100.00;99975.67;5033512;57;1134552;-79
2023/12/29 03:35:29;;;;;;;5.23;3.33;;;;;;;5.43;100.00;99959.00;5035394;57;1134539;-78
2023/12/29 03:40:35;;;;;;;4.07;2.20;;;;;;;5.43;100.00;99961.16;5054436;57;1134530;-79
2023/12/29 03:45:40;;;;;;;4.17;2.53;;;;;;;5.44;100.00;99959.38;5033309;57;1134182;-79
2023/12/29 03:50:46;;;;;;;5.23;3.07;;;;;;;5.48;100.00;99962.17;5034961;56;1134953;-78
2023/12/29 03:55:52;;;;;;;3.40;2.40;;;;;;;5.50;100.00;99962.92;5054153;57;1134756;-78
2023/12/29 04:00:58;;;;;;;3.93;3.00;;;;;;;5.48;100.00;99965.64;5034275;57;1134754;-79
2023/12/29 04:06:03;;;;;;;5.57;3.00;;;;;;;5.51;100.00;99962.79;5036281;56;1134573;-79
2023/12/29 04:11:09;;;;;;;4.83;2.90;;;;;;;5.51;100.00;99953.61;5019856;56;1134453;-79
2023/12/29 04:16:16;;;;;;;4.37;2.23;;;;;;;5.51;100.00;99940.97;4995467;56;1134692;-78
2023/12/29 04:21:22;;;;;;;4.37;2.83;;;;;;;5.52;100.00;99934.78;5081051;56;1134912;-78
2023/12/29 04:26:27;;;;;;;4.13;2.93;;;;;;;5.55;100.00;99938.52;5024046;57;1134840;-78
2023/12/29 04:31:33;;;;;;;6.57;2.93;;;;;;;5.56;100.00;99939.73;5040586;57;1134557;-78
2023/12/29 04:36:38;;;;;;;4.50;2.33;;;;;;;5.57;100.00;99940.11;4989369;57;1134516;-79
2023/12/29 04:41:45;;;;;;;5.14;2.62;;;;;;;5.55;100.00;99939.36;4970772;57;1134751;-79
2023/12/29 04:46:50;;;;;;;5.77;2.67;;;;;;;5.56;100.00;99939.73;4970973;58;1134875;-78
2023/12/29 04:51:56;;;;;;;7.50;3.92;;;;;;;5.56;100.00;99929.71;4953102;57;1134694;-79
2023/12/29 04:57:01;;;;;;;3.73;2.47;;;;;;;5.56;100.00;99917.91;4952731;58;1134687;-79
2023/12/29 05:02:07;;;;;;;6.27;2.77;;;;;;;5.55;100.00;99913.13;4973131;58;1134685;-79
2023/12/29 05:07:14;;;;;;;5.67;2.87;;;;;;;5.55;100.00;99904.42;4954542;58;1134533;-79
2023/12/29 05:12:19;;;;;;;6.30;2.73;;;;;;;5.53;100.00;99905.83;4998157;57;1134632;-78
2023/12/29 05:17:25;;;;;;;2.60;2.40;;;;;;;5.54;100.00;99907.98;5101114;56;1134503;-79
2023/12/29 05:22:30;;;;;;;3.40;2.33;;;;;;;5.52;100.00;99905.46;5023395;57;1134623;-79
2023/12/29 05:27:36;;;;;;;4.62;3.00;;;;;;;5.51;100.00;99906.40;5023847;57;1134738;-79
2023/12/29 05:32:41;;;;;;;3.57;2.60;;;;;;;5.50;100.00;99888.98;5043360;57;1134617;-79
2023/12/29 05:37:47;;;;;;;4.13;2.90;;;;;;;5.51;100.00;99884.58;5023803;57;1134357;-79
2023/12/29 05:42:53;;;;;;;6.97;2.30;;;;;;;5.49;100.00;99891.73;5023988;57;1134344;-79
2023/12/29 05:47:58;;;;;;;2.58;1.92;;;;;;;5.49;100.00;99882.55;5043398;57;1136719;-79
2023/12/29 05:53:05;;;;;;;2.50;2.00;;;;;;;5.48;100.00;99861.20;5023637;57;1134628;-79
2023/12/29 05:58:11;;;;;;;2.77;2.13;;;;;;;5.49;100.00;99863.73;5023456;57;1134791;-79
2023/12/29 06:03:17;;;;;;;5.00;2.50;;;;;;;5.51;100.00;99871.47;5043246;57;1134724;-79
2023/12/29 06:08:23;;;;;;;4.93;2.30;;;;;;;5.54;100.00;99867.33;5024013;57;1134653;-79
2023/12/29 06:13:29;;;;;;;4.10;1.83;;;;;;;5.57;100.00;99873.22;5078488;56;1134574;-80
2023/12/29 06:18:35;;;;;;;3.63;2.17;;;;;;;5.58;100.00;99873.59;4953078;58;1134676;-78
2023/12/29 06:23:41;;;;;;;2.45;2.25;;;;;;;5.57;100.00;99866.66;4973396;57;1134664;-79
2023/12/29 06:28:48;;;;;;;4.62;2.72;;;;;;;5.57;100.00;99862.73;4965068;57;1134811;-79
2023/12/29 06:33:54;;;;;;;2.65;2.40;;;;;;;5.56;100.00;99862.36;4954096;58;1134692;-79
2023/12/29 06:39:00;;;;;;;4.00;2.00;;;;;;;5.57;100.00;99853.55;4972715;57;1134948;-78
2023/12/29 06:44:06;;;;;;;4.07;2.23;;;;;;;5.60;100.00;99858.59;4953487;57;1134856;-79
2023/12/29 06:49:11;;;;;;;2.03;1.83;;;;;;;5.64;100.00;99852.67;4947747;57;1134559;-79
2023/12/29 06:54:17;;;;;;;2.83;2.00;;;;;;;5.70;100.00;99848.30;4972236;57;1136601;-78
2023/12/29 06:59:23;;;;;;;4.87;2.07;;;;;;;5.78;100.00;99848.63;4952374;57;1134585;-79
2023/12/29 07:04:29;;;;;;;3.30;2.03;;;;;;;5.84;100.00;99844.73;5037216;56;1134369;-80
2023/12/29 07:09:35;;;;;;;2.33;2.13;;;;;;;5.92;100.00;99845.09;5103909;56;1134729;-80
2023/12/29 07:14:42;;;;;;;3.73;1.83;;;;;;;5.98;100.00;99838.08;5099903;56;1134749;-79
2023/12/29 07:19:49;;;;;;;3.60;2.07;;;;;;;6.08;100.00;99844.86;5029211;56;1136717;-80
2023/12/29 07:24:55;;;;;;;5.10;2.43;;;;;;;6.16;100.00;99824.16;5020512;57;1136827;-78
2023/12/29 07:30:01;;;;;;;3.57;1.90;;;;;;;6.25;100.00;99827.46;5054603;56;1136666;-79
2023/12/29 07:35:07;;;;;;;2.33;2.13;;;;;;;6.34;100.00;99832.89;5034192;56;1136832;-81
2023/12/29 07:40:13;;;;;;;7.50;2.00;;;;;;;6.46;100.00;99841.67;5028284;57;1136707;-79
2023/12/29 07:45:19;;;;;;;5.13;1.50;;;;;;;6.54;100.00;99838.52;5054583;57;1136522;-80
2023/12/29 07:50:25;;;;;;;3.53;2.50;;;;;;;6.64;100.00;99836.89;5031815;56;1136636;-80
2023/12/29 07:55:32;;;;;;;2.03;1.30;;;;;;;6.72;100.00;99847.70;4969909;57;1136687;-74
2023/12/29 08:00:37;;;;;;;4.73;3.00;;;;;;;6.77;100.00;99836.84;4954185;57;1136623;-72
2023/12/29 08:05:43;;;;;;;5.03;3.23;;;;;;;6.83;100.00;99831.15;4973208;57;1136829;-72
2023/12/29 08:10:49;;;;;;;3.20;1.83;;;;;;;6.86;100.00;99842.28;5080868;56;1136614;-74
2023/12/29 08:15:54;;;;;;;4.03;2.17;;;;;;;6.92;100.00;99842.29;5035897;57;1136807;-74
2023/12/29 08:21:00;;;;;;;3.10;1.60;;;;;;;7.01;100.00;99828.02;5053960;56;1136802;-73
2023/12/29 08:26:06;;;;;;;1.50;1.40;;;;;;;7.05;100.00;99833.86;5034560;57;1136742;-79
2023/12/29 08:31:11;;;;;;;5.73;2.97;;;;;;;7.09;100.00;99839.27;5030228;56;1136771;-74
2023/12/29 08:36:22;;;;;;;3.13;2.67;;;;;;;7.11;100.00;99837.36;5051507;56;1136712;-80
2023/12/29 08:41:27;;;;;;;1.83;1.73;;;;;;;7.15;100.00;99831.41;5033899;57;1136623;-80
2023/12/29 08:46:33;;;;;;;3.80;2.33;;;;;;;7.20;100.00;99841.92;5028763;57;1136906;-78
2023/12/29 08:51:38;;;;;;;3.53;2.40;;;;;;;7.25;100.00;99823.19;5055077;57;1136789;-80
2023/12/29 08:56:45;;;;;;;3.57;3.27;;;;;;;7.33;100.00;99828.72;5032268;57;1136813;-79
2023/12/29 09:01:51;;;;;;;7.33;5.93;;;;;;;7.45;100.00;99829.11;5062371;56;1136818;-79
2023/12/29 09:06:56;;;;;;;15.07;8.20;;;;;;;7.53;100.00;99835.09;5097695;56;1138085;-80
2023/12/29 09:12:02;;;;;;;5.90;3.22;;;;;;;7.58;100.00;99833.80;5052223;56;1138933;-78
2023/12/29 09:17:07;;;;;;;6.17;4.53;;;;;;;7.63;100.00;99834.30;5025136;56;1136966;-78
2023/12/29 09:22:13;;;;;;;8.10;5.37;;;;;;;7.73;100.00;99843.16;5045417;56;1136542;-78
2023/12/29 09:27:18;;;;;;;5.57;4.77;;;;;;;7.78;100.00;99849.87;5024774;56;1136737;-78
2023/12/29 09:32:24;;;;;;;8.03;4.80;;;;;;;7.82;100.00;99845.55;5024869;56;1136751;-78
2023/12/29 09:37:30;;;;;;;10.20;5.83;;;;;;;7.90;100.00;99843.66;5024871;56;1136939;-78
2023/12/29 09:42:38;;;;;;;25.67;8.23;;;;;;;8.03;100.00;99844.38;5040792;56;1138715;-78
2023/12/29 09:47:45;;;;;;;34.40;10.33;;;;;;;8.16;100.00;99822.70;5024614;56;1138879;-80
2023/12/29 09:52:52;;;;;;;36.13;10.35;;;;;;;8.28;100.00;99838.02;5028183;56;1141066;-79
2023/12/29 09:58:00;;;;;;;38.88;12.07;;;;;;;8.35;100.00;99811.11;5050955;56;1141064;-77
2023/12/29 10:03:07;;;;;;;26.27;9.60;;;;;;;8.42;100.00;99811.44;5007371;56;1140749;-78
2023/12/29 10:08:14;;;;;;;21.23;6.97;;;;;;;8.53;100.00;99811.92;4985216;56;1138811;-76
2023/12/29 10:13:21;;;;;;;8.13;3.60;;;;;;;8.61;100.00;99823.50;4990025;57;1139217;-76
2023/12/29 10:18:57;;;;;;;10.47;5.03;;;;;;;8.73;100.00;99830.89;4862099;57;1145573;-81
2023/12/29 10:24:20;;;;;;;8.20;3.15;;;;;;;8.83;100.00;99809.44;4897022;57;1138890;-79
2023/12/29 10:29:28;;;;;;;7.50;3.57;;;;;;;8.93;100.00;99816.10;4958358;56;1137049;-78
2023/12/29 10:34:33;;;;;;;8.60;3.17;;;;;;;8.99;100.00;99816.93;4885072;58;1136961;-79
2023/12/29 10:39:39;;;;;;;21.50;7.57;;;;;;;9.04;100.00;99819.52;4907258;58;1136898;-79
2023/12/29 10:44:44;;;;;;;20.20;4.73;;;;;;;9.11;100.00;99822.51;4814574;58;1138897;-78
2023/12/29 10:49:53;;;;;;;14.78;4.80;;;;;;;9.19;100.00;99833.25;5011468;56;1138760;-78
2023/12/29 10:55:08;;;;;;;28.15;6.78;;;;;;;9.18;100.00;99818.38;5008439;56;1139000;-80
2023/12/29 11:00:14;;;;;;;7.33;2.27;;;;;;;9.17;100.00;99816.70;4907781;58;1138525;-80
2023/12/29 11:05:24;;;;;;;24.13;8.23;;;;;;;9.21;100.00;99802.78;4893190;57;1137157;-82
2023/12/29 11:10:31;;;;;;;8.30;2.77;;;;;;;9.25;100.00;99781.30;4902368;56;1138806;-82
2023/12/29 11:15:38;;;;;;;6.47;2.43;;;;;;;9.28;100.00;99807.44;4933011;58;1136787;-79
2023/12/29 11:20:46;;;;;;;8.57;2.80;;;;;;;9.32;100.00;99790.36;4863253;58;1136784;-79
2023/12/29 11:25:53;;;;;;;4.95;2.52;;;;;;;9.33;100.00;99785.44;4815520;58;1136532;-82
2023/12/29 11:30:58;;;;;;;3.80;1.12;;;;;;;9.34;100.00;99797.67;4816971;58;1136761;-83
2023/12/29 11:36:22;;;;;;;7.27;1.37;;;;;;;9.36;100.00;99804.98;4895522;58;1136803;-81
2023/12/29 11:41:46;;;;;;;8.80;3.33;;;;;;;9.39;100.00;99810.48;4853204;58;1137127;-78
2023/12/29 11:46:52;;;;;;;7.67;2.93;;;;;;;9.39;100.00;99813.97;4877775;58;1221434;-78
2023/12/29 11:51:57;;;;;;;6.07;3.10;;;;;;;9.44;100.00;99811.78;4882126;58;1136521;-82
2023/12/29 11:57:03;;;;;;;9.47;4.50;;;;;;;9.46;100.00;99800.63;4905258;57;1136626;-80
2023/12/29 12:02:12;;;;;;;12.70;4.80;;;;;;;9.51;100.00;99794.45;4924600;57;1136813;-82
2023/12/29 12:07:35;;;;;;;10.88;6.22;;;;;;;9.61;100.00;99791.05;4909142;58;1138882;-80
2023/12/29 12:12:41;;;;;;;;;;;;;;;9.80;100.00;99774.80;4832229;58;1138990;-79
2023/12/29 12:17:47;;;;;;;96.57;21.60;;;;;;;9.81;100.00;99791.00;4790683;59;974165;-82
2023/12/29 12:23:01;;;;;;;15.47;4.77;;;;;;;9.77;100.00;99790.93;4883988;58;1138764;-83
2023/12/29 12:28:10;;;;;;;8.25;3.17;;;;;;;9.74;100.00;99777.15;4864990;58;1138613;-77
2023/12/29 12:33:16;;;;;;;9.90;2.40;;;;;;;9.73;100.00;99793.95;4887342;57;1136804;-80
2023/12/29 12:38:24;;;;;;;67.77;17.30;;;;;;;9.71;100.00;99785.33;4902956;59;1136783;-78
2023/12/29 12:43:31;;;;;;;35.13;8.90;;;;;;;9.73;100.00;99796.11;4852045;59;1140703;-75
2023/12/29 12:48:44;;;;;;;11.83;2.40;;;;;;;9.67;100.00;99787.38;4857519;58;1138565;-82
2023/12/29 12:53:50;;;;;;;2.77;1.40;;;;;;;9.72;100.00;99801.52;4865478;59;1138903;-83
2023/12/29 12:59:01;;;;;;;21.73;4.63;;;;;;;9.73;100.00;99802.72;4884151;59;1136528;-82
2023/12/29 13:04:08;;;;;;;18.90;4.00;;;;;;;9.70;100.00;99812.21;4871538;57;1138909;-79
2023/12/29 13:09:19;;;;;;;13.20;2.77;;;;;;;9.70;100.00;99804.30;4959005;57;1138351;-78
2023/12/29 13:14:25;;;;;;;10.00;2.93;;;;;;;9.69;100.00;99801.30;4930491;57;1138860;-81
2023/12/29 13:19:32;;;;;;;18.20;4.63;;;;;;;9.67;100.00;99790.02;4851297;58;1139022;-78
2023/12/29 13:24:46;;;;;;;10.10;3.35;;;;;;;9.67;100.00;99797.11;4975148;56;1138873;-80
2023/12/29 13:29:52;;;;;;;14.90;4.00;;;;;;;9.66;100.00;99800.71;4995085;56;1139124;-78
2023/12/29 13:35:26;;;;;;;11.90;3.03;;;;;;;9.63;100.00;99788.61;5034177;56;1138897;-80
2023/12/29 13:40:45;;;;;;;11.35;2.90;;;;;;;9.66;100.00;99790.16;5015492;56;1138630;-77
2023/12/29 13:45:51;;;;;;;29.80;9.03;;;;;;;9.69;100.00;99800.45;5097416;56;1138506;-77
2023/12/29 13:50:57;;;;;;;16.60;4.47;;;;;;;9.72;100.00;99806.80;5118968;56;1138912;-80
2023/12/29 13:56:11;;;;;;;8.10;3.62;;;;;;;9.70;100.00;99795.05;5088981;56;1138868;-81
2023/12/29 14:01:18;;;;;;;13.87;3.83;;;;;;;9.71;100.00;99781.36;5034745;56;1136580;-84
2023/12/29 14:06:33;;;;;;;8.23;3.10;;;;;;;9.69;100.00;99778.85;5052045;56;1138967;-80
2023/12/29 14:11:42;;;;;;;6.73;2.97;;;;;;;9.64;100.00;99788.96;4841820;58;1136753;-81
2023/12/29 14:16:47;;;;;;;7.17;2.60;;;;;;;9.61;100.00;99793.69;4924210;58;1136650;-79
2023/12/29 14:21:55;;;;;;;6.47;2.23;;;;;;;9.59;100.00;99784.58;4903368;58;1136478;-80
2023/12/29 14:27:02;;;;;;;16.07;6.15;;;;;;;9.56;100.00;99785.31;4924128;57;1136983;-77
2023/12/29 14:32:08;;;;;;;9.28;4.87;;;;;;;9.53;100.00;99804.88;4966768;57;1138586;-74
2023/12/29 14:37:13;;;;;;;12.95;6.28;;;;;;;9.49;100.00;99802.98;4955368;57;1136536;-77
2023/12/29 14:42:19;;;;;;;12.87;4.93;;;;;;;9.47;100.00;99804.91;4961732;57;1138993;-75
2023/12/29 14:47:25;;;;;;;12.93;7.17;;;;;;;9.45;100.00;99808.19;4954987;57;1138856;-77
2023/12/29 14:52:30;;;;;;;6.47;3.97;;;;;;;9.48;100.00;99805.26;4962870;58;1138594;-77
2023/12/29 14:57:36;;;;;;;7.07;4.13;;;;;;;9.50;100.00;99789.30;4982308;58;1136860;-80
2023/12/29 15:02:41;;;;;;;7.43;4.73;;;;;;;9.49;100.00;99779.70;4961166;58;1137041;-80
2023/12/29 15:07:47;;;;;;;7.70;2.98;;;;;;;9.49;100.00;99781.02;4933983;58;1136788;-80
2023/12/29 15:12:52;;;;;;;71.20;22.40;;;;;;;9.46;100.00;99783.47;4977904;57;1136653;-82
2023/12/29 15:18:02;;;;;;;22.23;7.47;;;;;;;9.47;100.00;99777.19;4875679;59;1140755;-81
2023/12/29 15:23:11;;;;;;;9.13;4.12;;;;;;;9.47;100.00;99782.98;4842994;58;1138708;-81
2023/12/29 15:28:18;;;;;;;7.30;3.03;;;;;;;9.47;100.00;99779.03;4838481;57;1136725;-80
2023/12/29 15:33:25;;;;;;;11.53;4.57;;;;;;;9.49;100.00;99786.30;4801134;57;1136718;-78
2023/12/29 15:38:32;;;;;;;7.33;4.60;;;;;;;9.48;100.00;99779.34;4911519;58;1138634;-77
2023/12/29 15:43:38;;;;;;;6.00;4.10;;;;;;;9.46;100.00;99772.91;4803328;59;1136780;-82
2023/12/29 15:48:45;;;;;;;9.05;4.67;;;;;;;9.47;100.00;99775.06;4822047;59;1136777;-76
2023/12/29 15:53:54;;;;;;;9.43;4.90;;;;;;;9.48;100.00;99757.75;4803131;59;1136615;-79
2023/12/29 15:58:58;;;;;;;4.20;2.23;;;;;;;9.48;100.00;99760.39;4828990;58;1136568;-80
2023/12/29 16:04:04;;;;;;;12.30;6.43;;;;;;;9.48;100.00;99764.34;4900889;56;1141334;-77
2023/12/29 16:09:09;;;;;;;10.47;7.13;;;;;;;9.49;100.00;99751.98;4878277;57;1138685;-79
2023/12/29 16:14:17;;;;;;;7.13;4.53;;;;;;;9.52;100.00;99750.41;4967190;57;1138725;-82
2023/12/29 16:19:24;;;;;;;4.93;2.93;;;;;;;9.50;100.00;99758.46;4953400;58;1136742;-77
2023/12/29 16:24:29;;;;;;;13.27;7.63;;;;;;;9.52;100.00;99745.13;4880060;58;1136617;-80
2023/12/29 16:29:35;;;;;;;10.93;5.50;;;;;;;9.53;100.00;99737.09;4864141;57;1138940;-77
2023/12/29 16:34:43;;;;;;;20.10;11.40;;;;;;;9.54;100.00;99747.16;4977899;57;1138876;-76
2023/12/29 16:39:49;;;;;;;13.37;5.63;;;;;;;9.53;100.00;99739.73;4938905;57;1140624;-79
2023/12/29 16:44:54;;;;;;;8.50;4.13;;;;;;;9.53;100.00;99729.66;4939077;57;1138759;-78
2023/12/29 16:50:00;;;;;;;12.97;7.53;;;;;;;9.57;100.00;99728.91;4958409;58;1136612;-77
2023/12/29 16:55:06;;;;;;;12.37;8.20;;;;;;;9.58;100.00;99714.75;4891489;57;1138618;-81
2023/12/29 17:00:13;;;;;;;16.43;9.33;;;;;;;9.57;100.00;99707.31;4930305;58;1138880;-79
2023/12/29 17:05:19;;;;;;;42.70;20.40;;;;;;;9.53;100.00;99711.17;4959248;58;1138740;-79
2023/12/29 17:10:25;;;;;;;21.23;11.13;;;;;;;9.48;100.00;99704.96;4925579;58;1140622;-80
2023/12/29 17:15:30;;;;;;;28.47;14.07;;;;;;;9.47;100.00;99709.08;4891638;57;1140637;-79
2023/12/29 17:20:36;;;;;;;29.07;13.97;;;;;;;9.44;100.00;99705.38;4865398;59;1140931;-79
2023/12/29 17:25:42;;;;;;;29.03;15.13;;;;;;;9.39;100.00;99719.44;4950857;57;1140539;-77
2023/12/29 17:30:47;;;;;;;17.73;9.53;;;;;;;9.38;100.00;99706.73;4838230;58;1140602;-77
2023/12/29 17:35:53;;;;;;;20.57;11.50;;;;;;;9.37;100.00;99712.97;4863779;58;1138743;-78
2023/12/29 17:40:58;;;;;;;15.63;6.47;;;;;;;9.37;100.00;99714.29;4837277;59;1140997;-76
2023/12/29 17:46:08;;;;;;;87.30;34.00;;;;;;;9.34;100.00;99710.59;4861653;58;1138830;-78
2023/12/29 17:51:16;;;;;;;34.17;20.00;;;;;;;9.29;100.00;99712.80;4861230;59;1141072;-76
2023/12/29 17:56:22;;;;;;;19.50;10.30;;;;;;;9.25;100.00;99698.19;4880766;59;1140921;-80
2023/12/29 18:01:28;;;;;;;14.73;6.47;;;;;;;9.23;100.00;99697.48;4888924;58;1140538;-77
2023/12/29 18:06:34;;;;;;;18.73;8.83;;;;;;;9.21;100.00;99712.60;4840540;59;1138676;-82
2023/12/29 18:11:42;;;;;;;16.17;9.43;;;;;;;9.22;100.00;99691.02;4856943;59;1139086;-77
2023/12/29 18:16:47;;;;;;;10.47;5.57;;;;;;;9.22;100.00;99705.04;4967850;57;1138787;-80
2023/12/29 18:21:53;;;;;;;16.00;8.43;;;;;;;9.20;100.00;99712.73;4934262;56;1138912;-80
2023/12/29 18:26:58;;;;;;;20.77;8.70;;;;;;;9.20;100.00;99703.49;5018552;56;1138763;-81
2023/12/29 18:32:05;;;;;;;15.67;7.23;;;;;;;9.17;100.00;99701.95;5037884;56;1139104;-77
2023/12/29 18:37:11;;;;;;;14.18;8.30;;;;;;;9.10;100.00;99707.41;5015810;56;1138695;-76
2023/12/29 18:42:17;;;;;;;9.15;4.90;;;;;;;9.05;100.00;99718.33;5014692;57;1138687;-77
2023/12/29 18:47:23;;;;;;;15.20;5.97;;;;;;;9.01;100.00;99713.47;5034816;57;1136887;-79
2023/12/29 18:52:28;;;;;;;12.40;5.30;;;;;;;8.99;100.00;99732.53;5014316;56;1162353;-80
2023/12/29 18:57:34;;;;;;;7.80;3.83;;;;;;;8.98;100.00;99731.70;5014791;57;1138792;-80
2023/12/29 19:02:39;;;;;;;8.37;3.83;;;;;;;8.99;100.00;99737.81;5015326;57;1136630;-81
2023/12/29 19:07:45;;;;;;;6.23;2.73;;;;;;;9.05;100.00;99749.14;5037141;56;1136608;-81
2023/12/29 19:12:51;;;;;;;5.10;2.53;;;;;;;9.09;100.00;99754.05;4987186;56;1136688;-78
2023/12/29 19:17:57;;;;;;;5.35;2.22;;;;;;;9.17;100.00;99771.38;5015842;57;1136823;-78
2023/12/29 19:23:03;;;;;;;6.10;2.30;;;;;;;9.22;100.00;99760.45;5013933;57;1136648;-79
2023/12/29 19:28:09;;;;;;;3.30;1.80;;;;;;;9.28;100.00;99769.17;4887597;57;1139855;-77
2023/12/29 19:33:16;;;;;;;2.87;1.70;;;;;;;9.34;100.00;99773.08;4921215;57;1137074;-76
2023/12/29 19:38:22;;;;;;;2.62;1.52;;;;;;;9.38;100.00;99762.63;5034465;57;1136785;-79
2023/12/29 19:43:28;;;;;;;3.00;1.27;;;;;;;9.42;100.00;99773.29;4968354;56;1136695;-81
2023/12/29 19:48:34;;;;;;;5.70;1.63;;;;;;;9.44;100.00;99772.20;4937718;57;1136953;-77
2023/12/29 19:53:39;;;;;;;3.02;1.60;;;;;;;9.48;100.00;99770.95;4856014;57;1137074;-77
2023/12/29 19:58:45;;;;;;;6.63;1.50;;;;;;;9.51;100.00;99765.41;4870656;58;1136833;-76
2023/12/29 20:03:50;;;;;;;4.23;2.07;;;;;;;9.54;100.00;99769.60;4996308;56;1136613;-78
2023/12/29 20:08:56;;;;;;;9.27;2.77;;;;;;;9.51;100.00;99768.05;4953754;56;1136818;-76
2023/12/29 20:14:03;;;;;;;2.13;1.40;;;;;;;9.49;100.00;99769.14;4914756;57;1136737;-82
2023/12/29 20:19:12;;;;;;;3.60;2.20;;;;;;;9.47;100.00;99771.11;4986583;57;1143865;-80
2023/12/29 20:24:17;;;;;;;2.03;1.57;;;;;;;9.43;100.00;99776.28;4928926;57;1136920;-81
2023/12/29 20:29:24;;;;;;;5.10;2.80;;;;;;;9.41;100.00;99775.09;4841513;58;1136917;-75
2023/12/29 20:34:29;;;;;;;2.93;1.90;;;;;;;9.41;100.00;99783.01;4877948;58;1136667;-81
2023/12/29 20:39:35;;;;;;;3.30;2.10;;;;;;;9.41;100.00;99787.45;4784161;58;1136667;-76
2023/12/29 20:44:40;;;;;;;2.97;1.57;;;;;;;9.41;100.00;99781.69;4844493;58;1136789;-81
2023/12/29 20:49:46;;;;;;;1.80;1.37;;;;;;;9.43;100.00;99773.16;4948679;58;1136787;-77
2023/12/29 20:54:51;;;;;;;6.17;2.83;;;;;;;9.45;100.00;99763.31;4956203;56;1137255;-79
2023/12/29 20:59:57;;;;;;;9.47;2.73;;;;;;;9.47;100.00;99765.31;4822534;58;1136848;-78
2023/12/29 21:05:05;;;;;;;2.73;1.53;;;;;;;9.45;100.00;99766.44;4856773;58;1136906;-77
2023/12/29 21:10:10;;;;;;;3.07;1.67;;;;;;;9.46;100.00;99765.47;4855574;58;1136819;-81
2023/12/29 21:15:16;;;;;;;3.20;2.07;;;;;;;9.45;100.00;99764.63;5015900;57;1136645;-80
2023/12/29 21:20:21;;;;;;;6.78;1.70;;;;;;;9.46;100.00;99749.16;4944126;57;1136724;-82
2023/12/29 21:25:28;;;;;;;3.10;1.50;;;;;;;9.47;100.00;99745.52;4833948;58;1136552;-79
2023/12/29 21:30:33;;;;;;;2.57;1.53;;;;;;;9.46;100.00;99744.36;4932801;58;1136823;-77
2023/12/29 21:35:39;;;;;;;4.92;1.40;;;;;;;9.47;100.00;99747.34;4976995;56;1136823;-78
2023/12/29 21:40:44;;;;;;;1.37;1.20;;;;;;;9.46;100.00;99764.16;4994675;56;1136810;-77
2023/12/29 21:46:00;;;;;;;1.97;1.10;;;;;;;9.48;100.00;99755.59;4996422;56;1136925;-81
2023/12/29 21:51:11;;;;;;;5.00;1.93;;;;;;;9.45;100.00;99765.95;4996741;57;1136756;-79
2023/12/29 21:56:16;;;;;;;1.47;1.37;;;;;;;9.45;100.00;99761.16;5009449;57;1136713;-78
2023/12/29 22:01:39;;;;;;;2.12;1.30;;;;;;;9.44;100.00;99763.44;4972376;56;1136468;-78
2023/12/29 22:06:45;;;;;;;2.43;1.33;;;;;;;9.43;100.00;99756.48;4912512;57;1136491;-78
2023/12/29 22:11:50;;;;;;;2.47;1.00;;;;;;;9.43;100.00;99761.28;4997533;56;1136599;-78
2023/12/29 22:16:56;;;;;;;3.57;1.43;;;;;;;9.45;100.00;99761.16;4956157;57;1136495;-77
2023/12/29 22:22:01;;;;;;;2.30;1.00;;;;;;;9.42;100.00;99749.05;4914187;58;1136512;-78
2023/12/29 22:27:07;;;;;;;9.97;1.20;;;;;;;9.41;100.00;99751.82;4939397;58;1136609;-81
2023/12/29 22:32:12;;;;;;;1.57;1.00;;;;;;;9.40;100.00;99743.06;4958540;58;1136844;-78
2023/12/29 22:37:18;;;;;;;2.22;2.05;;;;;;;9.40;100.00;99739.11;4984285;57;1136673;-78
2023/12/29 22:42:27;;;;;;;3.45;1.00;;;;;;;9.40;100.00;99721.11;4903481;57;1136586;-76
2023/12/29 22:47:31;;;;;;;1.15;1.05;;;;;;;9.38;100.00;99706.73;5017150;56;1136861;-80
2023/12/29 22:52:36;;;;;;;2.10;0.97;;;;;;;9.39;100.00;99717.64;4987595;57;1136984;-79
2023/12/29 22:57:42;;;;;;;1.43;1.20;;;;;;;9.38;100.00;99713.33;4893381;58;1136819;-79
2023/12/29 23:02:48;;;;;;;2.33;0.90;;;;;;;9.38;100.00;99707.21;4891982;58;1136756;-79
2023/12/29 23:07:53;;;;;;;1.37;1.17;;;;;;;9.37;100.00;99696.30;5001659;56;1136673;-77
2023/12/29 23:12:59;;;;;;;2.13;1.03;;;;;;;9.34;100.00;99684.20;4980337;57;1136608;-77
2023/12/29 23:18:06;;;;;;;1.73;1.63;;;;;;;9.32;100.00;99674.25;4973627;57;1136580;-80
2023/12/29 23:23:12;;;;;;;0.87;0.83;;;;;;;9.29;100.00;99663.15;4992164;57;1136671;-76